Temp: 17.2°C   Baro: 1010.5mb
  Wind: 6.0mph   Dir: W (277°)
  Rain: 0.8mm (0.0mm/hr)
  Solar: 97W/m2  Hum: 91%
 
Bath Spa Weather Station Historical Data
Daily Summary for June 24, 2019 Units:  Both    English   Metric
Daily Weekly Monthly Yearly Custom
  High: Low: Average:
Temperature: 80.4 °F /  26.9 °C 63.3 °F /  17.4 °C 70.6 °F /  21.4 °C
Dew Point: 65.3 °F /  18.5 °C 58.8 °F /  14.9 °C 61.9 °F /  16.6 °C
Humidity: 94% 52% 75%
Wind Speed: 27mph /  43.5km/h - 3.4mph /  5.5km/h
Wind Gust: 27mph /  43.5km/h - -
Wind- - WSW
Pressure: 29.92 in /  1013.1 hPa 29.78 in /  1008.4 hPa -
Precipitation: 0.34 in /  8.64 mm    
Historical Graphs
 
 
Tabular Data for June 24, 2019
Time Temperature Dew Point Pressure Wind Wind Speed Wind Gust Humidity Rainfall Rate (Hourly) solar
00:04 74.1 °F /  23.4 °C 62.1 °F /  16.7 °C 29.82in /  1009.7hPa Calm   2mph /  3.2km/h 66% 0.00in /  0mm 0 W/m2
00:09 73.9 °F /  23.3 °C 61.9 °F /  16.6 °C 29.84in /  1010.4hPa WNW 6mph /  9.7km/h 6mph /  9.7km/h 66% 0.00in /  0mm 0 W/m2
00:14 73.4 °F /  23 °C 63.5 °F /  17.5 °C 29.92in /  1013.1hPa SSE 27mph /  43.5km/h 27mph /  43.5km/h 71% 0.04in /  1.02mm 0 W/m2
00:19 69.3 °F /  20.7 °C 61.7 °F /  16.5 °C 29.86in /  1011.1hPa ESE 4.9mph /  7.9km/h 15mph /  24.1km/h 77% 0.19in /  4.83mm 0 W/m2
00:24 68.4 °F /  20.2 °C 62.2 °F /  16.8 °C 29.82in /  1009.7hPa NE 4mph /  6.4km/h 9mph /  14.5km/h 81% 0.30in /  7.62mm 0 W/m2
00:29 67.5 °F /  19.7 °C 62.4 °F /  16.9 °C 29.85in /  1010.7hPa WNW 11mph /  17.7km/h 19mph /  30.6km/h 84% 0.31in /  7.87mm 0 W/m2
00:34 67.1 °F /  19.5 °C 62.8 °F /  17.1 °C 29.85in /  1010.7hPa Calm   7mph /  11.3km/h 86% 0.31in /  7.87mm 0 W/m2
00:39 67.1 °F /  19.5 °C 63.1 °F /  17.3 °C 29.83in /  1010hPa Calm   2mph /  3.2km/h 87% 0.31in /  7.87mm 0 W/m2
00:44 67.3 °F /  19.6 °C 63.7 °F /  17.6 °C 29.85in /  1010.7hPa West 2.9mph /  4.7km/h 5mph /  8km/h 88% 0.31in /  7.87mm 0 W/m2
00:49 67.5 °F /  19.7 °C 64 °F /  17.8 °C 29.86in /  1011.1hPa WSW 0.9mph /  1.4km/h 2mph /  3.2km/h 89% 0.31in /  7.87mm 0 W/m2
00:54 67.1 °F /  19.5 °C 63.7 °F /  17.6 °C 29.85in /  1010.7hPa Calm   2mph /  3.2km/h 89% 0.31in /  7.87mm 0 W/m2
00:59 67.1 °F /  19.5 °C 63.7 °F /  17.6 °C 29.84in /  1010.4hPa WSW 0.9mph /  1.4km/h 5mph /  8km/h 89% 0.31in /  7.87mm 0 W/m2
01:04 67.1 °F /  19.5 °C 64 °F /  17.8 °C 29.84in /  1010.4hPa Calm   1mph /  1.6km/h 90% 0.31in /  7.87mm 0 W/m2
01:09 67.1 °F /  19.5 °C 64 °F /  17.8 °C 29.86in /  1011.1hPa Calm   1mph /  1.6km/h 90% 0.31in /  7.87mm 0 W/m2
01:14 67.1 °F /  19.5 °C 64 °F /  17.8 °C 29.85in /  1010.7hPa Calm   3mph /  4.8km/h 90% 0.26in /  6.6mm 0 W/m2
01:19 66.9 °F /  19.4 °C 64.2 °F /  17.9 °C 29.84in /  1010.4hPa WSW 0.9mph /  1.4km/h 4mph /  6.4km/h 91% 0.09in /  2.29mm 0 W/m2
01:24 66.7 °F /  19.3 °C 64 °F /  17.8 °C 29.86in /  1011.1hPa WSW 0.9mph /  1.4km/h 6mph /  9.7km/h 91% 0.02in /  0.51mm 0 W/m2
01:29 66.9 °F /  19.4 °C 64.2 °F /  17.9 °C 29.88in /  1011.7hPa WSW 2mph /  3.2km/h 2mph /  3.2km/h 91% 0.02in /  0.51mm 0 W/m2
01:34 66.9 °F /  19.4 °C 64.6 °F /  18.1 °C 29.88in /  1011.7hPa WSW 2.9mph /  4.7km/h 5mph /  8km/h 92% 0.02in /  0.51mm 0 W/m2
01:39 66.7 °F /  19.3 °C 64.4 °F /  18 °C 29.87in /  1011.4hPa WNW 4.9mph /  7.9km/h 5mph /  8km/h 92% 0.02in /  0.51mm 0 W/m2
01:44 66.4 °F /  19.1 °C 64 °F /  17.8 °C 29.88in /  1011.7hPa WNW 0.9mph /  1.4km/h 2mph /  3.2km/h 92% 0.03in /  0.76mm 0 W/m2
01:49 66.2 °F /  19 °C 63.9 °F /  17.7 °C 29.86in /  1011.1hPa WNW 6mph /  9.7km/h 6mph /  9.7km/h 92% 0.03in /  0.76mm 0 W/m2
01:54 66 °F /  18.9 °C 63.7 °F /  17.6 °C 29.85in /  1010.7hPa WNW 2.9mph /  4.7km/h 4mph /  6.4km/h 92% 0.03in /  0.76mm 0 W/m2
01:59 66 °F /  18.9 °C 63.7 °F /  17.6 °C 29.85in /  1010.7hPa WNW 2mph /  3.2km/h 2mph /  3.2km/h 92% 0.03in /  0.76mm 0 W/m2
02:04 66 °F /  18.9 °C 63.7 °F /  17.6 °C 29.85in /  1010.7hPa Calm     92% 0.03in /  0.76mm 0 W/m2
02:09 66 °F /  18.9 °C 63.7 °F /  17.6 °C 29.85in /  1010.7hPa WNW 4mph /  6.4km/h 4mph /  6.4km/h 92% 0.02in /  0.51mm 0 W/m2
02:14 65.8 °F /  18.8 °C 63.5 °F /  17.5 °C 29.85in /  1010.7hPa WNW 9mph /  14.5km/h 9mph /  14.5km/h 92% 0.01in /  0.25mm 0 W/m2
02:19 65.8 °F /  18.8 °C 63.5 °F /  17.5 °C 29.85in /  1010.7hPa WNW 4.9mph /  7.9km/h 5mph /  8km/h 92% 0.01in /  0.25mm 0 W/m2
02:24 66 °F /  18.9 °C 63.7 °F /  17.6 °C 29.84in /  1010.4hPa Calm   6mph /  9.7km/h 92% 0.01in /  0.25mm 0 W/m2
02:29 66.2 °F /  19 °C 63.9 °F /  17.7 °C 29.83in /  1010hPa WNW 0.9mph /  1.4km/h 2mph /  3.2km/h 92% 0.01in /  0.25mm 0 W/m2
02:34 66 °F /  18.9 °C 63.7 °F /  17.6 °C 29.82in /  1009.7hPa Calm   1mph /  1.6km/h 92% 0.01in /  0.25mm 0 W/m2
02:39 66.2 °F /  19 °C 63.9 °F /  17.7 °C 29.82in /  1009.7hPa WNW 0.9mph /  1.4km/h 2mph /  3.2km/h 92% 0.01in /  0.25mm 0 W/m2
02:44 66.4 °F /  19.1 °C 64 °F /  17.8 °C 29.83in /  1010hPa Calm   3mph /  4.8km/h 92% 0.00in /  0mm 0 W/m2
02:49 66.4 °F /  19.1 °C 64 °F /  17.8 °C 29.83in /  1010hPa Calm   1mph /  1.6km/h 92% 0.00in /  0mm 0 W/m2
02:54 66.2 °F /  19 °C 63.9 °F /  17.7 °C 29.82in /  1009.7hPa WNW 0.9mph /  1.4km/h 1mph /  1.6km/h 92% 0.00in /  0mm 0 W/m2
02:59 66.2 °F /  19 °C 63.9 °F /  17.7 °C 29.81in /  1009.4hPa Calm   1mph /  1.6km/h 92% 0.00in /  0mm 0 W/m2
03:04 66.2 °F /  19 °C 63.9 °F /  17.7 °C 29.80in /  1009hPa WNW 2mph /  3.2km/h 2mph /  3.2km/h 92% 0.00in /  0mm 0 W/m2
03:09 66 °F /  18.9 °C 63.7 °F /  17.6 °C 29.80in /  1009hPa Calm     92% 0.00in /  0mm 0 W/m2
03:14 66 °F /  18.9 °C 63.7 °F /  17.6 °C 29.79in /  1008.7hPa WNW 4mph /  6.4km/h 4mph /  6.4km/h 92% 0.00in /  0mm 0 W/m2
03:19 65.8 °F /  18.8 °C 63.5 °F /  17.5 °C 29.79in /  1008.7hPa SSE 2.9mph /  4.7km/h 6mph /  9.7km/h 92% 0.00in /  0mm 0 W/m2
03:24 65.8 °F /  18.8 °C 63.5 °F /  17.5 °C 29.79in /  1008.7hPa SSE 2mph /  3.2km/h 5mph /  8km/h 92% 0.00in /  0mm 0 W/m2
03:29 65.8 °F /  18.8 °C 63.5 °F /  17.5 °C 29.78in /  1008.4hPa SSE 2.9mph /  4.7km/h 5mph /  8km/h 92% 0.00in /  0mm 0 W/m2
03:34 65.7 °F /  18.7 °C 63.3 °F /  17.4 °C 29.78in /  1008.4hPa SSE 4mph /  6.4km/h 6mph /  9.7km/h 92% 0.00in /  0mm 0 W/m2
03:39 65.8 °F /  18.8 °C 63.5 °F /  17.5 °C 29.79in /  1008.7hPa SSE 2mph /  3.2km/h 7mph /  11.3km/h 92% 0.00in /  0mm 0 W/m2
03:44 65.8 °F /  18.8 °C 63.5 °F /  17.5 °C 29.79in /  1008.7hPa Calm   1mph /  1.6km/h 92% 0.00in /  0mm 0 W/m2
03:49 65.8 °F /  18.8 °C 63.5 °F /  17.5 °C 29.80in /  1009hPa SSE 0.9mph /  1.4km/h 4mph /  6.4km/h 92% 0.00in /  0mm 0 W/m2
03:54 65.8 °F /  18.8 °C 63.5 °F /  17.5 °C 29.80in /  1009hPa SSE 0.9mph /  1.4km/h 1mph /  1.6km/h 92% 0.00in /  0mm 0 W/m2
03:59 65.8 °F /  18.8 °C 63.5 °F /  17.5 °C 29.81in /  1009.4hPa Calm   1mph /  1.6km/h 92% 0.00in /  0mm 0 W/m2
04:04 65.8 °F /  18.8 °C 63.5 °F /  17.5 °C 29.82in /  1009.7hPa Calm   1mph /  1.6km/h 92% 0.00in /  0mm 0 W/m2
04:09 65.7 °F /  18.7 °C 63.3 °F /  17.4 °C 29.82in /  1009.7hPa South 4mph /  6.4km/h 4mph /  6.4km/h 92% 0.00in /  0mm 0 W/m2
04:14 65.5 °F /  18.6 °C 63.1 °F /  17.3 °C 29.82in /  1009.7hPa WNW 2.9mph /  4.7km/h 6mph /  9.7km/h 92% 0.00in /  0mm 0 W/m2
04:19 65.1 °F /  18.4 °C 62.8 °F /  17.1 °C 29.83in /  1010hPa West 2mph /  3.2km/h 6mph /  9.7km/h 92% 0.00in /  0mm 0 W/m2
04:24 65.1 °F /  18.4 °C 62.8 °F /  17.1 °C 29.83in /  1010hPa Calm     92% 0.00in /  0mm 0 W/m2
04:29 65.1 °F /  18.4 °C 62.8 °F /  17.1 °C 29.83in /  1010hPa Calm     92% 0.00in /  0mm 0 W/m2
04:34 64.9 °F /  18.3 °C 62.6 °F /  17 °C 29.83in /  1010hPa Calm     92% 0.00in /  0mm 0 W/m2
04:39 64.9 °F /  18.3 °C 62.6 °F /  17 °C 29.83in /  1010hPa Calm     92% 0.00in /  0mm 0 W/m2
04:44 64.9 °F /  18.3 °C 62.6 °F /  17 °C 29.84in /  1010.4hPa West 2mph /  3.2km/h 2mph /  3.2km/h 92% 0.00in /  0mm 0 W/m2
04:49 64.9 °F /  18.3 °C 62.6 °F /  17 °C 29.84in /  1010.4hPa West 0.9mph /  1.4km/h 1mph /  1.6km/h 92% 0.00in /  0mm 0 W/m2
04:54 64.8 °F /  18.2 °C 62.6 °F /  17 °C 29.84in /  1010.4hPa West 0.9mph /  1.4km/h 1mph /  1.6km/h 93% 0.00in /  0mm 0 W/m2
04:59 64.8 °F /  18.2 °C 62.6 °F /  17 °C 29.84in /  1010.4hPa Calm     93% 0.00in /  0mm 0 W/m2
05:04 64.8 °F /  18.2 °C 62.6 °F /  17 °C 29.84in /  1010.4hPa Calm     93% 0.00in /  0mm 0 W/m2
05:09 64.4 °F /  18 °C 62.4 °F /  16.9 °C 29.85in /  1010.7hPa West 2.9mph /  4.7km/h 3mph /  4.8km/h 93% 0.00in /  0mm 0 W/m2
05:14 64.2 °F /  17.9 °C 62.2 °F /  16.8 °C 29.85in /  1010.7hPa West 2mph /  3.2km/h 3mph /  4.8km/h 93% 0.00in /  0mm 0 W/m2
05:19 64.2 °F /  17.9 °C 62.2 °F /  16.8 °C 29.85in /  1010.7hPa West 0.9mph /  1.4km/h 3mph /  4.8km/h 93% 0.00in /  0mm 0 W/m2
05:24 64 °F /  17.8 °C 62.1 °F /  16.7 °C 29.85in /  1010.7hPa West 2.9mph /  4.7km/h 4mph /  6.4km/h 93% 0.00in /  0mm 0 W/m2
05:29 63.9 °F /  17.7 °C 61.9 °F /  16.6 °C 29.85in /  1010.7hPa West 0.9mph /  1.4km/h 3mph /  4.8km/h 93% 0.00in /  0mm 0 W/m2
05:34 63.9 °F /  17.7 °C 61.9 °F /  16.6 °C 29.85in /  1010.7hPa Calm   2mph /  3.2km/h 93% 0.00in /  0mm 0 W/m2
05:39 63.9 °F /  17.7 °C 61.9 °F /  16.6 °C 29.85in /  1010.7hPa West 6mph /  9.7km/h 6mph /  9.7km/h 93% 0.00in /  0mm 0 W/m2
05:44 63.9 °F /  17.7 °C 61.9 °F /  16.6 °C 29.85in /  1010.7hPa Calm   6mph /  9.7km/h 93% 0.00in /  0mm 5 W/m2
05:49 64 °F /  17.8 °C 62.1 °F /  16.7 °C 29.85in /  1010.7hPa Calm   3mph /  4.8km/h 93% 0.00in /  0mm 9 W/m2
05:54 63.9 °F /  17.7 °C 61.9 °F /  16.6 °C 29.86in /  1011.1hPa West 0.9mph /  1.4km/h 2mph /  3.2km/h 93% 0.00in /  0mm 12 W/m2
05:59 63.9 °F /  17.7 °C 61.9 °F /  16.6 °C 29.86in /  1011.1hPa WNW 0.9mph /  1.4km/h 4mph /  6.4km/h 93% 0.00in /  0mm 16 W/m2
06:04 63.9 °F /  17.7 °C 61.9 °F /  16.6 °C 29.86in /  1011.1hPa WNW 2mph /  3.2km/h 4mph /  6.4km/h 93% 0.00in /  0mm 16 W/m2
06:09 63.9 °F /  17.7 °C 61.9 °F /  16.6 °C 29.86in /  1011.1hPa Calm   2mph /  3.2km/h 93% 0.00in /  0mm 18 W/m2
06:14 63.7 °F /  17.6 °C 61.7 °F /  16.5 °C 29.86in /  1011.1hPa WNW 4mph /  6.4km/h 4mph /  6.4km/h 93% 0.00in /  0mm 30 W/m2
06:19 63.5 °F /  17.5 °C 61.7 °F /  16.5 °C 29.86in /  1011.1hPa WNW 2mph /  3.2km/h 3mph /  4.8km/h 94% 0.00in /  0mm 40 W/m2
06:24 63.5 °F /  17.5 °C 61.7 °F /  16.5 °C 29.87in /  1011.4hPa WNW 2mph /  3.2km/h 3mph /  4.8km/h 94% 0.00in /  0mm 23 W/m2
06:29 63.3 °F /  17.4 °C 61.5 °F /  16.4 °C 29.87in /  1011.4hPa Calm   4mph /  6.4km/h 94% 0.00in /  0mm 21 W/m2
06:34 63.3 °F /  17.4 °C 61.5 °F /  16.4 °C 29.87in /  1011.4hPa WNW 2.9mph /  4.7km/h 8mph /  12.9km/h 94% 0.00in /  0mm 16 W/m2
06:39 63.3 °F /  17.4 °C 61.5 °F /  16.4 °C 29.87in /  1011.4hPa Calm   2mph /  3.2km/h 94% 0.00in /  0mm 19 W/m2
06:44 63.3 °F /  17.4 °C 61.5 °F /  16.4 °C 29.87in /  1011.4hPa WNW 6mph /  9.7km/h 6mph /  9.7km/h 94% 0.00in /  0mm 21 W/m2
06:49 63.3 °F /  17.4 °C 61.5 °F /  16.4 °C 29.87in /  1011.4hPa WNW 8mph /  12.9km/h 8mph /  12.9km/h 94% 0.00in /  0mm 39 W/m2
06:54 63.3 °F /  17.4 °C 61.5 °F /  16.4 °C 29.87in /  1011.4hPa WNW 4mph /  6.4km/h 6mph /  9.7km/h 94% 0.00in /  0mm 37 W/m2
06:59 63.3 °F /  17.4 °C 61.5 °F /  16.4 °C 29.87in /  1011.4hPa WNW 0.9mph /  1.4km/h 5mph /  8km/h 94% 0.00in /  0mm 49 W/m2
07:04 63.5 °F /  17.5 °C 61.7 °F /  16.5 °C 29.87in /  1011.4hPa WNW 4mph /  6.4km/h 6mph /  9.7km/h 94% 0.00in /  0mm 54 W/m2
07:09 63.5 °F /  17.5 °C 61.7 °F /  16.5 °C 29.88in /  1011.7hPa WNW 7mph /  11.3km/h 7mph /  11.3km/h 94% 0.00in /  0mm 42 W/m2
07:14 63.5 °F /  17.5 °C 61.7 °F /  16.5 °C 29.88in /  1011.7hPa WNW 6mph /  9.7km/h 7mph /  11.3km/h 94% 0.00in /  0mm 56 W/m2
07:19 63.7 °F /  17.6 °C 61.9 °F /  16.6 °C 29.88in /  1011.7hPa WNW 2mph /  3.2km/h 4mph /  6.4km/h 94% 0.00in /  0mm 60 W/m2
07:24 63.9 °F /  17.7 °C 62.1 °F /  16.7 °C 29.88in /  1011.7hPa WNW 4.9mph /  7.9km/h 6mph /  9.7km/h 94% 0.00in /  0mm 63 W/m2
07:29 63.7 °F /  17.6 °C 61.7 °F /  16.5 °C 29.88in /  1011.7hPa WNW 9mph /  14.5km/h 9mph /  14.5km/h 93% 0.00in /  0mm 128 W/m2
07:34 63.5 °F /  17.5 °C 61.5 °F /  16.4 °C 29.88in /  1011.7hPa West 4mph /  6.4km/h 11mph /  17.7km/h 93% 0.00in /  0mm 83 W/m2
07:39 63.5 °F /  17.5 °C 61.5 °F /  16.4 °C 29.88in /  1011.7hPa West 4mph /  6.4km/h 6mph /  9.7km/h 93% 0.00in /  0mm 107 W/m2
07:44 63.7 °F /  17.6 °C 61.7 °F /  16.5 °C 29.88in /  1011.7hPa West 2.9mph /  4.7km/h 7mph /  11.3km/h 93% 0.00in /  0mm 98 W/m2
07:49 63.9 °F /  17.7 °C 61.9 °F /  16.6 °C 29.88in /  1011.7hPa West 2mph /  3.2km/h 7mph /  11.3km/h 93% 0.00in /  0mm 86 W/m2
07:54 63.9 °F /  17.7 °C 61.9 °F /  16.6 °C 29.88in /  1011.7hPa West 2mph /  3.2km/h 4mph /  6.4km/h 93% 0.00in /  0mm 86 W/m2
07:59 63.7 °F /  17.6 °C 61.3 °F /  16.3 °C 29.88in /  1011.7hPa West 0.9mph /  1.4km/h 6mph /  9.7km/h 92% 0.00in /  0mm 95 W/m2
08:04 63.5 °F /  17.5 °C 61.2 °F /  16.2 °C 29.89in /  1012.1hPa West 2.9mph /  4.7km/h 5mph /  8km/h 92% 0.00in /  0mm 225 W/m2
08:09 63.5 °F /  17.5 °C 61.2 °F /  16.2 °C 29.89in /  1012.1hPa West 6mph /  9.7km/h 10mph /  16.1km/h 92% 0.00in /  0mm 214 W/m2
08:14 64 °F /  17.8 °C 61.7 °F /  16.5 °C 29.89in /  1012.1hPa West 2.9mph /  4.7km/h 7mph /  11.3km/h 92% 0.00in /  0mm 192 W/m2
08:19 64.2 °F /  17.9 °C 61.5 °F /  16.4 °C 29.89in /  1012.1hPa WNW 4.9mph /  7.9km/h 8mph /  12.9km/h 91% 0.00in /  0mm 227 W/m2
08:24 64.4 °F /  18 °C 61.3 °F /  16.3 °C 29.89in /  1012.1hPa WNW 6.9mph /  11.1km/h 9mph /  14.5km/h 90% 0.00in /  0mm 281 W/m2
08:29 64.2 °F /  17.9 °C 61 °F /  16.1 °C 29.88in /  1011.7hPa WNW 4mph /  6.4km/h 10mph /  16.1km/h 89% 0.00in /  0mm 227 W/m2
08:34 64.6 °F /  18.1 °C 61 °F /  16.1 °C 29.89in /  1012.1hPa WNW 6mph /  9.7km/h 9mph /  14.5km/h 88% 0.00in /  0mm 183 W/m2
08:39 65.1 °F /  18.4 °C 61.5 °F /  16.4 °C 29.89in /  1012.1hPa WSW 2.9mph /  4.7km/h 3mph /  4.8km/h 88% 0.00in /  0mm 141 W/m2
08:44 65.1 °F /  18.4 °C 61.2 °F /  16.2 °C 29.89in /  1012.1hPa WSW 2.9mph /  4.7km/h 6mph /  9.7km/h 87% 0.00in /  0mm 190 W/m2
08:49 65.1 °F /  18.4 °C 60.8 °F /  16 °C 29.89in /  1012.1hPa WSW 7mph /  11.3km/h 7mph /  11.3km/h 86% 0.00in /  0mm 155 W/m2
08:54 65.3 °F /  18.5 °C 61 °F /  16.1 °C 29.90in /  1012.4hPa WSW 2mph /  3.2km/h 6mph /  9.7km/h 86% 0.00in /  0mm 336 W/m2
08:59 65.7 °F /  18.7 °C 61 °F /  16.1 °C 29.89in /  1012.1hPa WSW 0.9mph /  1.4km/h 4mph /  6.4km/h 85% 0.00in /  0mm 452 W/m2
09:04 66.2 °F /  19 °C 61.2 °F /  16.2 °C 29.89in /  1012.1hPa West 6mph /  9.7km/h 7mph /  11.3km/h 84% 0.00in /  0mm 457 W/m2
09:09 66.4 °F /  19.1 °C 61 °F /  16.1 °C 29.90in /  1012.4hPa West 8.9mph /  14.3km/h 9mph /  14.5km/h 83% 0.00in /  0mm 466 W/m2
09:14 66.6 °F /  19.2 °C 61 °F /  16.1 °C 29.90in /  1012.4hPa WNW 0.9mph /  1.4km/h 7mph /  11.3km/h 82% 0.00in /  0mm 480 W/m2
09:19 66.9 °F /  19.4 °C 61.2 °F /  16.2 °C 29.90in /  1012.4hPa West 4mph /  6.4km/h 8mph /  12.9km/h 82% 0.00in /  0mm 487 W/m2
09:24 67.1 °F /  19.5 °C 61.3 °F /  16.3 °C 29.90in /  1012.4hPa West 2mph /  3.2km/h 6mph /  9.7km/h 82% 0.00in /  0mm 501 W/m2
09:29 67.1 °F /  19.5 °C 61.2 °F /  16.2 °C 29.90in /  1012.4hPa WNW 2.9mph /  4.7km/h 7mph /  11.3km/h 81% 0.00in /  0mm 515 W/m2
09:34 66.9 °F /  19.4 °C 60.6 °F /  15.9 °C 29.90in /  1012.4hPa West 6mph /  9.7km/h 9mph /  14.5km/h 80% 0.00in /  0mm 492 W/m2
09:39 67.6 °F /  19.8 °C 61.5 °F /  16.4 °C 29.91in /  1012.8hPa Calm   4mph /  6.4km/h 81% 0.00in /  0mm 547 W/m2
09:44 68.4 °F /  20.2 °C 61.5 °F /  16.4 °C 29.91in /  1012.8hPa West 4.9mph /  7.9km/h 9mph /  14.5km/h 79% 0.00in /  0mm 543 W/m2
09:49 68.2 °F /  20.1 °C 61 °F /  16.1 °C 29.91in /  1012.8hPa WNW 6mph /  9.7km/h 7mph /  11.3km/h 78% 0.00in /  0mm 503 W/m2
09:54 68.5 °F /  20.3 °C 61.3 °F /  16.3 °C 29.90in /  1012.4hPa Calm   5mph /  8km/h 78% 0.00in /  0mm 573 W/m2
09:59 69.3 °F /  20.7 °C 61.3 °F /  16.3 °C 29.90in /  1012.4hPa WNW 8.1mph /  13km/h 8mph /  12.9km/h 76% 0.00in /  0mm 571 W/m2
10:04 68.7 °F /  20.4 °C 60.8 °F /  16 °C 29.90in /  1012.4hPa WNW 2.9mph /  4.7km/h 9mph /  14.5km/h 76% 0.00in /  0mm 592 W/m2
10:09 69.3 °F /  20.7 °C 61.7 °F /  16.5 °C 29.89in /  1012.1hPa WNW 4mph /  6.4km/h 5mph /  8km/h 77% 0.00in /  0mm 599 W/m2
10:14 69.4 °F /  20.8 °C 61.2 °F /  16.2 °C 29.90in /  1012.4hPa WNW 2.9mph /  4.7km/h 7mph /  11.3km/h 75% 0.00in /  0mm 606 W/m2
10:19 69.6 °F /  20.9 °C 61 °F /  16.1 °C 29.89in /  1012.1hPa West 4.9mph /  7.9km/h 9mph /  14.5km/h 74% 0.00in /  0mm 615 W/m2
10:24 69.6 °F /  20.9 °C 61 °F /  16.1 °C 29.89in /  1012.1hPa West 2mph /  3.2km/h 6mph /  9.7km/h 74% 0.00in /  0mm 631 W/m2
10:29 70.7 °F /  21.5 °C 61.7 °F /  16.5 °C 29.89in /  1012.1hPa WSW 9mph /  14.5km/h 9mph /  14.5km/h 73% 0.00in /  0mm 640 W/m2
10:34 71.1 °F /  21.7 °C 61.5 °F /  16.4 °C 29.89in /  1012.1hPa WSW 2mph /  3.2km/h 5mph /  8km/h 72% 0.00in /  0mm 649 W/m2
10:39 70.5 °F /  21.4 °C 61.5 °F /  16.4 °C 29.89in /  1012.1hPa NW 4mph /  6.4km/h 7mph /  11.3km/h 73% 0.00in /  0mm 638 W/m2
10:44 71.1 °F /  21.7 °C 62.4 °F /  16.9 °C 29.89in /  1012.1hPa NW 0.9mph /  1.4km/h 5mph /  8km/h 74% 0.00in /  0mm 592 W/m2
10:49 70.7 °F /  21.5 °C 61.2 °F /  16.2 °C 29.89in /  1012.1hPa WNW 2.9mph /  4.7km/h 8mph /  12.9km/h 72% 0.00in /  0mm 673 W/m2
10:54 71.4 °F /  21.9 °C 61.9 °F /  16.6 °C 29.89in /  1012.1hPa WNW 4mph /  6.4km/h 5mph /  8km/h 72% 0.00in /  0mm 675 W/m2
10:59 72 °F /  22.2 °C 62.1 °F /  16.7 °C 29.89in /  1012.1hPa WNW 2.9mph /  4.7km/h 6mph /  9.7km/h 71% 0.00in /  0mm 687 W/m2
11:04 72 °F /  22.2 °C 62.4 °F /  16.9 °C 29.89in /  1012.1hPa WNW 0.9mph /  1.4km/h 4mph /  6.4km/h 72% 0.00in /  0mm 696 W/m2
11:09 72.5 °F /  22.5 °C 62.6 °F /  17 °C 29.90in /  1012.4hPa NW 2.9mph /  4.7km/h 8mph /  12.9km/h 71% 0.00in /  0mm 701 W/m2
11:14 72.1 °F /  22.3 °C 61.3 °F /  16.3 °C 29.90in /  1012.4hPa West 2mph /  3.2km/h 4mph /  6.4km/h 69% 0.00in /  0mm 722 W/m2
11:19 72.1 °F /  22.3 °C 61.9 °F /  16.6 °C 29.90in /  1012.4hPa West 4mph /  6.4km/h 6mph /  9.7km/h 70% 0.00in /  0mm 703 W/m2
11:24 72.7 °F /  22.6 °C 62.2 °F /  16.8 °C 29.90in /  1012.4hPa West 4mph /  6.4km/h 5mph /  8km/h 70% 0.00in /  0mm 673 W/m2
11:29 72.9 °F /  22.7 °C 62.1 °F /  16.7 °C 29.90in /  1012.4hPa West 2.9mph /  4.7km/h 7mph /  11.3km/h 69% 0.00in /  0mm 652 W/m2
11:34 72.7 °F /  22.6 °C 62.2 °F /  16.8 °C 29.90in /  1012.4hPa West 2mph /  3.2km/h 5mph /  8km/h 70% 0.00in /  0mm 714 W/m2
11:39 73.8 °F /  23.2 °C 63 °F /  17.2 °C 29.90in /  1012.4hPa West 4mph /  6.4km/h 5mph /  8km/h 69% 0.00in /  0mm 733 W/m2
11:44 73.9 °F /  23.3 °C 62.2 °F /  16.8 °C 29.90in /  1012.4hPa Calm   7mph /  11.3km/h 67% 0.00in /  0mm 749 W/m2
11:49 74.7 °F /  23.7 °C 63 °F /  17.2 °C 29.90in /  1012.4hPa West 4.9mph /  7.9km/h 7mph /  11.3km/h 67% 0.00in /  0mm 756 W/m2
11:54 74.3 °F /  23.5 °C 63.5 °F /  17.5 °C 29.90in /  1012.4hPa WSW 2.9mph /  4.7km/h 4mph /  6.4km/h 69% 0.00in /  0mm 761 W/m2
11:59 75.6 °F /  24.2 °C 62.6 °F /  17 °C 29.90in /  1012.4hPa WSW 2mph /  3.2km/h 7mph /  11.3km/h 64% 0.00in /  0mm 775 W/m2
12:04 75.2 °F /  24 °C 62.6 °F /  17 °C 29.90in /  1012.4hPa WSW 2mph /  3.2km/h 8mph /  12.9km/h 65% 0.00in /  0mm 782 W/m2
12:09 75.4 °F /  24.1 °C 63.1 °F /  17.3 °C 29.90in /  1012.4hPa Calm   9mph /  14.5km/h 66% 0.00in /  0mm 802 W/m2
12:14 76.1 °F /  24.5 °C 63.5 °F /  17.5 °C 29.90in /  1012.4hPa West 2mph /  3.2km/h 7mph /  11.3km/h 65% 0.00in /  0mm 313 W/m2
12:19 75.7 °F /  24.3 °C 62.8 °F /  17.1 °C 29.90in /  1012.4hPa SW 0.9mph /  1.4km/h 9mph /  14.5km/h 64% 0.00in /  0mm 805 W/m2
12:24 75.6 °F /  24.2 °C 62.6 °F /  17 °C 29.90in /  1012.4hPa Calm   7mph /  11.3km/h 64% 0.00in /  0mm 809 W/m2
12:29 76.1 °F /  24.5 °C 62.6 °F /  17 °C 29.90in /  1012.4hPa West 4mph /  6.4km/h 10mph /  16.1km/h 63% 0.00in /  0mm 805 W/m2
12:34 77.4 °F /  25.2 °C 63.9 °F /  17.7 °C 29.90in /  1012.4hPa West 2mph /  3.2km/h 7mph /  11.3km/h 63% 0.00in /  0mm 802 W/m2
12:39 77 °F /  25 °C 64.4 °F /  18 °C 29.89in /  1012.1hPa SW 0.9mph /  1.4km/h 10mph /  16.1km/h 65% 0.00in /  0mm 810 W/m2
12:44 77.7 °F /  25.4 °C 64.6 °F /  18.1 °C 29.89in /  1012.1hPa SW 4mph /  6.4km/h 9mph /  14.5km/h 64% 0.00in /  0mm 810 W/m2
12:49 77 °F /  25 °C 64.8 °F /  18.2 °C 29.90in /  1012.4hPa SW 8.1mph /  13km/h 10mph /  16.1km/h 66% 0.00in /  0mm 812 W/m2
12:54 77.4 °F /  25.2 °C 64.2 °F /  17.9 °C 29.89in /  1012.1hPa SSW 4.9mph /  7.9km/h 7mph /  11.3km/h 64% 0.00in /  0mm 816 W/m2
12:59 77.7 °F /  25.4 °C 63.7 °F /  17.6 °C 29.90in /  1012.4hPa SSW 4mph /  6.4km/h 8mph /  12.9km/h 62% 0.00in /  0mm 819 W/m2
13:04 77.7 °F /  25.4 °C 63.7 °F /  17.6 °C 29.90in /  1012.4hPa WSW 2.9mph /  4.7km/h 9mph /  14.5km/h 62% 0.00in /  0mm 810 W/m2
13:09 78.1 °F /  25.6 °C 63.5 °F /  17.5 °C 29.90in /  1012.4hPa SW 13mph /  20.9km/h 13mph /  20.9km/h 61% 0.00in /  0mm 817 W/m2
13:14 77.9 °F /  25.5 °C 63.9 °F /  17.7 °C 29.90in /  1012.4hPa South 14.1mph /  22.7km/h 14mph /  22.5km/h 62% 0.00in /  0mm 817 W/m2
13:19 78.3 °F /  25.7 °C 64.6 °F /  18.1 °C 29.90in /  1012.4hPa WSW 6mph /  9.7km/h 7mph /  11.3km/h 63% 0.00in /  0mm 823 W/m2
13:24 78.4 °F /  25.8 °C 64.4 °F /  18 °C 29.90in /  1012.4hPa SW 2mph /  3.2km/h 9mph /  14.5km/h 62% 0.00in /  0mm 817 W/m2
13:29 79 °F /  26.1 °C 64.4 °F /  18 °C 29.90in /  1012.4hPa SSW 4.9mph /  7.9km/h 7mph /  11.3km/h 61% 0.00in /  0mm 823 W/m2
13:34 78.1 °F /  25.6 °C 62.6 °F /  17 °C 29.90in /  1012.4hPa SSW 8.1mph /  13km/h 14mph /  22.5km/h 59% 0.00in /  0mm 824 W/m2
13:39 79.2 °F /  26.2 °C 63.7 °F /  17.6 °C 29.90in /  1012.4hPa SSW 4mph /  6.4km/h 11mph /  17.7km/h 59% 0.00in /  0mm 824 W/m2
13:44 79.7 °F /  26.5 °C 63.1 °F /  17.3 °C 29.90in /  1012.4hPa SSW 4mph /  6.4km/h 8mph /  12.9km/h 57% 0.00in /  0mm 817 W/m2
13:49 79.7 °F /  26.5 °C 64.6 °F /  18.1 °C 29.89in /  1012.1hPa SW 4.9mph /  7.9km/h 11mph /  17.7km/h 60% 0.00in /  0mm 826 W/m2
13:54 80.1 °F /  26.7 °C 64.4 °F /  18 °C 29.90in /  1012.4hPa SW 8.1mph /  13km/h 13mph /  20.9km/h 59% 0.00in /  0mm 847 W/m2
13:59 80.4 °F /  26.9 °C 65.3 °F /  18.5 °C 29.90in /  1012.4hPa SW 4.9mph /  7.9km/h 10mph /  16.1km/h 60% 0.00in /  0mm 816 W/m2
14:04 79.5 °F /  26.4 °C 63 °F /  17.2 °C 29.90in /  1012.4hPa SW 6mph /  9.7km/h 13mph /  20.9km/h 57% 0.00in /  0mm 826 W/m2
14:09 79.9 °F /  26.6 °C 61.7 °F /  16.5 °C 29.90in /  1012.4hPa SW 10.1mph /  16.3km/h 16mph /  25.7km/h 54% 0.00in /  0mm 824 W/m2
14:14 80.1 °F /  26.7 °C 62.4 °F /  16.9 °C 29.90in /  1012.4hPa South 6mph /  9.7km/h 9mph /  14.5km/h 55% 0.00in /  0mm 819 W/m2
14:19 79.9 °F /  26.6 °C 61.2 °F /  16.2 °C 29.90in /  1012.4hPa SW 4.9mph /  7.9km/h 15mph /  24.1km/h 53% 0.00in /  0mm 816 W/m2
14:24 79.5 °F /  26.4 °C 61.3 °F /  16.3 °C 29.90in /  1012.4hPa SW 8.1mph /  13km/h 14mph /  22.5km/h 54% 0.00in /  0mm 819 W/m2
14:29 79.3 °F /  26.3 °C 60.3 °F /  15.7 °C 29.90in /  1012.4hPa WSW 6.9mph /  11.1km/h 13mph /  20.9km/h 52% 0.00in /  0mm 805 W/m2
14:34 79.7 °F /  26.5 °C 61.5 °F /  16.4 °C 29.90in /  1012.4hPa SW 8.1mph /  13km/h 12mph /  19.3km/h 54% 0.00in /  0mm 640 W/m2
14:39 79.3 °F /  26.3 °C 61.2 °F /  16.2 °C 29.90in /  1012.4hPa SW 6mph /  9.7km/h 15mph /  24.1km/h 54% 0.00in /  0mm 661 W/m2
14:44 79.2 °F /  26.2 °C 61.2 °F /  16.2 °C 29.90in /  1012.4hPa West 11mph /  17.7km/h 14mph /  22.5km/h 54% 0.00in /  0mm 854 W/m2
14:49 78.8 °F /  26 °C 59.7 °F /  15.4 °C 29.90in /  1012.4hPa WSW 19mph /  30.6km/h 19mph /  30.6km/h 52% 0.00in /  0mm 842 W/m2
14:54 78.8 °F /  26 °C 60.3 °F /  15.7 °C 29.90in /  1012.4hPa West 8.9mph /  14.3km/h 11mph /  17.7km/h 53% 0.00in /  0mm 682 W/m2
14:59 78.8 °F /  26 °C 60.3 °F /  15.7 °C 29.90in /  1012.4hPa WSW 12.1mph /  19.5km/h 17mph /  27.4km/h 53% 0.00in /  0mm 766 W/m2
15:04 79 °F /  26.1 °C 59.9 °F /  15.5 °C 29.91in /  1012.8hPa WSW 13mph /  20.9km/h 18mph /  29km/h 52% 0.00in /  0mm 840 W/m2
15:09 79.7 °F /  26.5 °C 60.4 °F /  15.8 °C 29.90in /  1012.4hPa SW 4mph /  6.4km/h 10mph /  16.1km/h 52% 0.00in /  0mm 810 W/m2
15:14 80.1 °F /  26.7 °C 60.8 °F /  16 °C 29.90in /  1012.4hPa South 6mph /  9.7km/h 12mph /  19.3km/h 52% 0.00in /  0mm 803 W/m2
15:19 79.5 °F /  26.4 °C 60.4 °F /  15.8 °C 29.91in /  1012.8hPa SW 17mph /  27.4km/h 17mph /  27.4km/h 52% 0.00in /  0mm 492 W/m2
15:24 78.8 °F /  26 °C 60.3 °F /  15.7 °C 29.90in /  1012.4hPa WSW 8.1mph /  13km/h 13mph /  20.9km/h 53% 0.00in /  0mm 675 W/m2
15:29 78.8 °F /  26 °C 60.8 °F /  16 °C 29.91in /  1012.8hPa WSW 10.1mph /  16.3km/h 15mph /  24.1km/h 54% 0.00in /  0mm 522 W/m2
15:34 78.3 °F /  25.7 °C 59.7 °F /  15.4 °C 29.91in /  1012.8hPa WSW 6mph /  9.7km/h 16mph /  25.7km/h 53% 0.00in /  0mm 424 W/m2
15:39 78.3 °F /  25.7 °C 60.8 °F /  16 °C 29.91in /  1012.8hPa SSW 4.9mph /  7.9km/h 8mph /  12.9km/h 55% 0.00in /  0mm 446 W/m2
15:44 79 °F /  26.1 °C 61.5 °F /  16.4 °C 29.91in /  1012.8hPa SSW 4.9mph /  7.9km/h 9mph /  14.5km/h 55% 0.00in /  0mm 765 W/m2
15:49 79.2 °F /  26.2 °C 62.1 °F /  16.7 °C 29.91in /  1012.8hPa SSW 11mph /  17.7km/h 14mph /  22.5km/h 56% 0.00in /  0mm 612 W/m2
15:54 77.2 °F /  25.1 °C 60.3 °F /  15.7 °C 29.91in /  1012.8hPa SW 4.9mph /  7.9km/h 15mph /  24.1km/h 56% 0.00in /  0mm 353 W/m2
15:59 77.9 °F /  25.5 °C 60.4 °F /  15.8 °C 29.91in /  1012.8hPa SW 2.9mph /  4.7km/h 11mph /  17.7km/h 55% 0.00in /  0mm 443 W/m2
16:04 78.3 °F /  25.7 °C 61.3 °F /  16.3 °C 29.91in /  1012.8hPa SW 10.1mph /  16.3km/h 10mph /  16.1km/h 56% 0.00in /  0mm 503 W/m2
16:09 77.7 °F /  25.4 °C 61.3 °F /  16.3 °C 29.91in /  1012.8hPa SW 4.9mph /  7.9km/h 13mph /  20.9km/h 57% 0.00in /  0mm 415 W/m2
16:14 77.9 °F /  25.5 °C 61 °F /  16.1 °C 29.91in /  1012.8hPa SW 11mph /  17.7km/h 13mph /  20.9km/h 56% 0.00in /  0mm 550 W/m2
16:19 77 °F /  25 °C 60.6 °F /  15.9 °C 29.91in /  1012.8hPa South 6.9mph /  11.1km/h 14mph /  22.5km/h 57% 0.00in /  0mm 323 W/m2
16:24 76.5 °F /  24.7 °C 60.6 °F /  15.9 °C 29.91in /  1012.8hPa SSW 2.9mph /  4.7km/h 11mph /  17.7km/h 58% 0.00in /  0mm 322 W/m2
16:29 76.8 °F /  24.9 °C 61 °F /  16.1 °C 29.90in /  1012.4hPa SW 8.1mph /  13km/h 9mph /  14.5km/h 58% 0.00in /  0mm 420 W/m2
16:34 77.4 °F /  25.2 °C 61.3 °F /  16.3 °C 29.90in /  1012.4hPa South 2mph /  3.2km/h 7mph /  11.3km/h 58% 0.00in /  0mm 299 W/m2
16:39 77.4 °F /  25.2 °C 61 °F /  16.1 °C 29.90in /  1012.4hPa SSW 6mph /  9.7km/h 7mph /  11.3km/h 57% 0.00in /  0mm 455 W/m2
16:44 77.2 °F /  25.1 °C 60.8 °F /  16 °C 29.91in /  1012.8hPa South 6.9mph /  11.1km/h 11mph /  17.7km/h 57% 0.00in /  0mm 341 W/m2
16:49 76.5 °F /  24.7 °C 60.1 °F /  15.6 °C 29.91in /  1012.8hPa SW 2mph /  3.2km/h 12mph /  19.3km/h 57% 0.00in /  0mm 338 W/m2
16:54 76.6 °F /  24.8 °C 60.8 °F /  16 °C 29.91in /  1012.8hPa SSW 4mph /  6.4km/h 10mph /  16.1km/h 58% 0.00in /  0mm 422 W/m2
16:59 76.6 °F /  24.8 °C 60.8 °F /  16 °C 29.91in /  1012.8hPa SW 4mph /  6.4km/h 8mph /  12.9km/h 58% 0.00in /  0mm 325 W/m2
17:04 76.6 °F /  24.8 °C 61.2 °F /  16.2 °C 29.90in /  1012.4hPa South 2mph /  3.2km/h 8mph /  12.9km/h 59% 0.00in /  0mm 236 W/m2
17:09 76.5 °F /  24.7 °C 61 °F /  16.1 °C 29.91in /  1012.8hPa SW 6.9mph /  11.1km/h 9mph /  14.5km/h 59% 0.00in /  0mm 225 W/m2
17:14 76.5 °F /  24.7 °C 61.5 °F /  16.4 °C 29.91in /  1012.8hPa SW 4.9mph /  7.9km/h 10mph /  16.1km/h 60% 0.00in /  0mm 202 W/m2
17:19 76.5 °F /  24.7 °C 61 °F /  16.1 °C 29.91in /  1012.8hPa West 2.9mph /  4.7km/h 6mph /  9.7km/h 59% 0.00in /  0mm 197 W/m2
17:24 75.9 °F /  24.4 °C 60.1 °F /  15.6 °C 29.91in /  1012.8hPa West 8.1mph /  13km/h 11mph /  17.7km/h 58% 0.00in /  0mm 209 W/m2
17:29 75.6 °F /  24.2 °C 60.3 °F /  15.7 °C 29.91in /  1012.8hPa WSW 4mph /  6.4km/h 10mph /  16.1km/h 59% 0.00in /  0mm 213 W/m2
17:34 75.2 °F /  24 °C 59.9 °F /  15.5 °C 29.91in /  1012.8hPa SSW 2.9mph /  4.7km/h 11mph /  17.7km/h 59% 0.00in /  0mm 202 W/m2
17:39 75.6 °F /  24.2 °C 60.3 °F /  15.7 °C 29.91in /  1012.8hPa SW 4mph /  6.4km/h 8mph /  12.9km/h 59% 0.00in /  0mm 183 W/m2
17:44 75.2 °F /  24 °C 59.9 °F /  15.5 °C 29.91in /  1012.8hPa SSW 4mph /  6.4km/h 7mph /  11.3km/h 59% 0.00in /  0mm 169 W/m2
17:49 75.2 °F /  24 °C 59.9 °F /  15.5 °C 29.91in /  1012.8hPa SSW 4.9mph /  7.9km/h 10mph /  16.1km/h 59% 0.00in /  0mm 176 W/m2
17:54 75 °F /  23.9 °C 60.6 °F /  15.9 °C 29.91in /  1012.8hPa SW 6.9mph /  11.1km/h 9mph /  14.5km/h 61% 0.00in /  0mm 195 W/m2
17:59 74.8 °F /  23.8 °C 61 °F /  16.1 °C 29.91in /  1012.8hPa WSW 4mph /  6.4km/h 9mph /  14.5km/h 62% 0.00in /  0mm 206 W/m2
18:04 74.5 °F /  23.6 °C 61.5 °F /  16.4 °C 29.91in /  1012.8hPa SW 4mph /  6.4km/h 8mph /  12.9km/h 64% 0.00in /  0mm 204 W/m2
18:09 74.3 °F /  23.5 °C 60.8 °F /  16 °C 29.90in /  1012.4hPa SW 4.9mph /  7.9km/h 8mph /  12.9km/h 63% 0.00in /  0mm 193 W/m2
18:14 74.3 °F /  23.5 °C 61.3 °F /  16.3 °C 29.90in /  1012.4hPa SW 2.9mph /  4.7km/h 8mph /  12.9km/h 64% 0.00in /  0mm 178 W/m2
18:19 74.3 °F /  23.5 °C 61.3 °F /  16.3 °C 29.90in /  1012.4hPa South 6mph /  9.7km/h 9mph /  14.5km/h 64% 0.00in /  0mm 169 W/m2
18:24 74.3 °F /  23.5 °C 61.3 °F /  16.3 °C 29.90in /  1012.4hPa South 8.9mph /  14.3km/h 9mph /  14.5km/h 64% 0.00in /  0mm 163 W/m2
18:29 74.1 °F /  23.4 °C 61.5 °F /  16.4 °C 29.90in /  1012.4hPa WSW 4.9mph /  7.9km/h 7mph /  11.3km/h 65% 0.00in /  0mm 162 W/m2
18:34 73.9 °F /  23.3 °C 61.3 °F /  16.3 °C 29.90in /  1012.4hPa South 9mph /  14.5km/h 9mph /  14.5km/h 65% 0.00in /  0mm 171 W/m2
18:39 73.8 °F /  23.2 °C 61.3 °F /  16.3 °C 29.90in /  1012.4hPa WSW 4.9mph /  7.9km/h 6mph /  9.7km/h 65% 0.00in /  0mm 158 W/m2
18:44 73.8 °F /  23.2 °C 61.3 °F /  16.3 °C 29.90in /  1012.4hPa WSW 4mph /  6.4km/h 6mph /  9.7km/h 65% 0.00in /  0mm 137 W/m2
18:49 73.6 °F /  23.1 °C 61.2 °F /  16.2 °C 29.90in /  1012.4hPa WSW 2mph /  3.2km/h 8mph /  12.9km/h 65% 0.00in /  0mm 128 W/m2
18:54 73.6 °F /  23.1 °C 61.2 °F /  16.2 °C 29.90in /  1012.4hPa SW 6.9mph /  11.1km/h 7mph /  11.3km/h 65% 0.00in /  0mm 139 W/m2
18:59 73.4 °F /  23 °C 61.3 °F /  16.3 °C 29.90in /  1012.4hPa SW 6mph /  9.7km/h 6mph /  9.7km/h 66% 0.00in /  0mm 123 W/m2
19:04 73.2 °F /  22.9 °C 61.5 °F /  16.4 °C 29.89in /  1012.1hPa SW 2mph /  3.2km/h 6mph /  9.7km/h 67% 0.00in /  0mm 116 W/m2
19:09 73.4 °F /  23 °C 61.7 °F /  16.5 °C 29.90in /  1012.4hPa SSW 2mph /  3.2km/h 5mph /  8km/h 67% 0.00in /  0mm 114 W/m2
19:14 73.2 °F /  22.9 °C 62.1 °F /  16.7 °C 29.90in /  1012.4hPa SW 0.9mph /  1.4km/h 5mph /  8km/h 68% 0.00in /  0mm 113 W/m2
19:19 73.4 °F /  23 °C 61.7 °F /  16.5 °C 29.90in /  1012.4hPa SW 4mph /  6.4km/h 5mph /  8km/h 67% 0.00in /  0mm 107 W/m2
19:24 73.4 °F /  23 °C 62.2 °F /  16.8 °C 29.90in /  1012.4hPa Calm   2mph /  3.2km/h 68% 0.00in /  0mm 100 W/m2
19:29 73.6 °F /  23.1 °C 62.4 °F /  16.9 °C 29.90in /  1012.4hPa Calm   5mph /  8km/h 68% 0.00in /  0mm 93 W/m2
19:34 73.4 °F /  23 °C 61.7 °F /  16.5 °C 29.90in /  1012.4hPa SW 0.9mph /  1.4km/h 5mph /  8km/h 67% 0.00in /  0mm 88 W/m2
19:39 73.2 °F /  22.9 °C 62.1 °F /  16.7 °C 29.90in /  1012.4hPa SW 0.9mph /  1.4km/h 4mph /  6.4km/h 68% 0.00in /  0mm 90 W/m2
19:44 73.2 °F /  22.9 °C 62.1 °F /  16.7 °C 29.90in /  1012.4hPa SW 0.9mph /  1.4km/h 4mph /  6.4km/h 68% 0.00in /  0mm 90 W/m2
19:49 73 °F /  22.8 °C 61.9 °F /  16.6 °C 29.90in /  1012.4hPa SSW 6mph /  9.7km/h 6mph /  9.7km/h 68% 0.00in /  0mm 90 W/m2
19:54 73 °F /  22.8 °C 61.9 °F /  16.6 °C 29.90in /  1012.4hPa Calm   3mph /  4.8km/h 68% 0.00in /  0mm 132 W/m2
19:59 73.2 °F /  22.9 °C 62.1 °F /  16.7 °C 29.90in /  1012.4hPa South 2mph /  3.2km/h 5mph /  8km/h 68% 0.00in /  0mm 104 W/m2
20:04 72.5 °F /  22.5 °C 61.7 °F /  16.5 °C 29.90in /  1012.4hPa SSE 6mph /  9.7km/h 7mph /  11.3km/h 69% 0.00in /  0mm 98 W/m2
20:09 72.3 °F /  22.4 °C 61.5 °F /  16.4 °C 29.90in /  1012.4hPa SSE 2mph /  3.2km/h 4mph /  6.4km/h 69% 0.00in /  0mm 97 W/m2
20:14 72.5 °F /  22.5 °C 61.7 °F /  16.5 °C 29.90in /  1012.4hPa SSE 0.9mph /  1.4km/h 5mph /  8km/h 69% 0.00in /  0mm 72 W/m2
20:19 72.5 °F /  22.5 °C 61.7 °F /  16.5 °C 29.90in /  1012.4hPa SSE 0.9mph /  1.4km/h 4mph /  6.4km/h 69% 0.00in /  0mm 58 W/m2
20:24 72.1 °F /  22.3 °C 61.3 °F /  16.3 °C 29.90in /  1012.4hPa SSE 0.9mph /  1.4km/h 6mph /  9.7km/h 69% 0.00in /  0mm 44 W/m2
20:29 72 °F /  22.2 °C 61.2 °F /  16.2 °C 29.90in /  1012.4hPa South 4mph /  6.4km/h 7mph /  11.3km/h 69% 0.00in /  0mm 35 W/m2
20:34 71.8 °F /  22.1 °C 61.5 °F /  16.4 °C 29.90in /  1012.4hPa South 2.9mph /  4.7km/h 4mph /  6.4km/h 70% 0.00in /  0mm 28 W/m2
20:39 71.6 °F /  22 °C 61.3 °F /  16.3 °C 29.90in /  1012.4hPa Calm   4mph /  6.4km/h 70% 0.00in /  0mm 25 W/m2
20:44 71.6 °F /  22 °C 61.3 °F /  16.3 °C 29.90in /  1012.4hPa Calm   3mph /  4.8km/h 70% 0.00in /  0mm 21 W/m2
20:49 71.6 °F /  22 °C 61.3 °F /  16.3 °C 29.90in /  1012.4hPa SSW 2mph /  3.2km/h 4mph /  6.4km/h 70% 0.00in /  0mm 18 W/m2
20:54 71.4 °F /  21.9 °C 61.5 °F /  16.4 °C 29.90in /  1012.4hPa Calm   3mph /  4.8km/h 71% 0.00in /  0mm 12 W/m2
20:59 71.4 °F /  21.9 °C 61.5 °F /  16.4 °C 29.90in /  1012.4hPa Calm   1mph /  1.6km/h 71% 0.00in /  0mm 9 W/m2
21:04 71.6 °F /  22 °C 61.7 °F /  16.5 °C 29.90in /  1012.4hPa Calm   3mph /  4.8km/h 71% 0.00in /  0mm 5 W/m2
21:09 71.8 °F /  22.1 °C 61.9 °F /  16.6 °C 29.90in /  1012.4hPa South 2mph /  3.2km/h 3mph /  4.8km/h 71% 0.00in /  0mm 0 W/m2
21:14 71.6 °F /  22 °C 61.7 °F /  16.5 °C 29.90in /  1012.4hPa South 2mph /  3.2km/h 3mph /  4.8km/h 71% 0.00in /  0mm 0 W/m2
21:19 71.6 °F /  22 °C 61.7 °F /  16.5 °C 29.90in /  1012.4hPa Calm   2mph /  3.2km/h 71% 0.00in /  0mm 0 W/m2
21:24 71.8 °F /  22.1 °C 61.9 °F /  16.6 °C 29.90in /  1012.4hPa Calm   1mph /  1.6km/h 71% 0.00in /  0mm 0 W/m2
21:29 71.6 °F /  22 °C 61.7 °F /  16.5 °C 29.91in /  1012.8hPa Calm   1mph /  1.6km/h 71% 0.00in /  0mm 0 W/m2
21:34 71.6 °F /  22 °C 61.7 °F /  16.5 °C 29.91in /  1012.8hPa Calm     71% 0.00in /  0mm 0 W/m2
21:39 71.4 °F /  21.9 °C 61.5 °F /  16.4 °C 29.91in /  1012.8hPa Calm     71% 0.00in /  0mm 0 W/m2
21:44 71.2 °F /  21.8 °C 61.3 °F /  16.3 °C 29.91in /  1012.8hPa Calm     71% 0.00in /  0mm 0 W/m2
21:49 71.2 °F /  21.8 °C 61.7 °F /  16.5 °C 29.91in /  1012.8hPa South 3mph /  4.8km/h 3mph /  4.8km/h 72% 0.00in /  0mm 0 W/m2
21:54 70.9 °F /  21.6 °C 61.3 °F /  16.3 °C 29.91in /  1012.8hPa Calm   1mph /  1.6km/h 72% 0.00in /  0mm 0 W/m2
21:59 70.7 °F /  21.5 °C 61.2 °F /  16.2 °C 29.91in /  1012.8hPa Calm   1mph /  1.6km/h 72% 0.00in /  0mm 0 W/m2
22:04 70.3 °F /  21.3 °C 60.8 °F /  16 °C 29.91in /  1012.8hPa Calm   2mph /  3.2km/h 72% 0.00in /  0mm 0 W/m2
22:09 70.2 °F /  21.2 °C 60.6 °F /  15.9 °C 29.91in /  1012.8hPa Calm   1mph /  1.6km/h 72% 0.00in /  0mm 0 W/m2
22:14 69.8 °F /  21 °C 60.8 °F /  16 °C 29.91in /  1012.8hPa South 0.9mph /  1.4km/h 2mph /  3.2km/h 73% 0.00in /  0mm 0 W/m2
22:19 69.8 °F /  21 °C 60.8 °F /  16 °C 29.91in /  1012.8hPa Calm   3mph /  4.8km/h 73% 0.00in /  0mm 0 W/m2
22:24 69.6 °F /  20.9 °C 60.6 °F /  15.9 °C 29.91in /  1012.8hPa Calm   1mph /  1.6km/h 73% 0.00in /  0mm 0 W/m2
22:29 69.6 °F /  20.9 °C 60.6 °F /  15.9 °C 29.91in /  1012.8hPa South 2mph /  3.2km/h 3mph /  4.8km/h 73% 0.00in /  0mm 0 W/m2
22:33 69.4 °F /  20.8 °C 60.4 °F /  15.8 °C 29.91in /  1012.8hPa SE 0.9mph /  1.4km/h 8mph /  12.9km/h 73% 0.00in /  0mm 0 W/m2
22:38 69.4 °F /  20.8 °C 60.4 °F /  15.8 °C 29.91in /  1012.8hPa SE 4mph /  6.4km/h 6mph /  9.7km/h 73% 0.00in /  0mm 0 W/m2
22:44 69.3 °F /  20.7 °C 60.3 °F /  15.7 °C 29.91in /  1012.8hPa SE 2mph /  3.2km/h 6mph /  9.7km/h 73% 0.00in /  0mm 0 W/m2
22:49 69.3 °F /  20.7 °C 60.3 °F /  15.7 °C 29.91in /  1012.8hPa SE 2mph /  3.2km/h 2mph /  3.2km/h 73% 0.00in /  0mm 0 W/m2
22:54 68.9 °F /  20.5 °C 59.9 °F /  15.5 °C 29.91in /  1012.8hPa Calm   2mph /  3.2km/h 73% 0.00in /  0mm 0 W/m2
22:59 68.9 °F /  20.5 °C 59.9 °F /  15.5 °C 29.91in /  1012.8hPa SE 0.9mph /  1.4km/h 4mph /  6.4km/h 73% 0.00in /  0mm 0 W/m2
23:04 68.7 °F /  20.4 °C 59.7 °F /  15.4 °C 29.91in /  1012.8hPa SE 2mph /  3.2km/h 4mph /  6.4km/h 73% 0.00in /  0mm 0 W/m2
23:09 68.7 °F /  20.4 °C 60.1 °F /  15.6 °C 29.90in /  1012.4hPa Calm   2mph /  3.2km/h 74% 0.00in /  0mm 0 W/m2
23:14 68.7 °F /  20.4 °C 60.1 °F /  15.6 °C 29.91in /  1012.8hPa Calm     74% 0.00in /  0mm 0 W/m2
23:19 68.5 °F /  20.3 °C 59.9 °F /  15.5 °C 29.90in /  1012.4hPa Calm     74% 0.00in /  0mm 0 W/m2
23:24 68.4 °F /  20.2 °C 59.7 °F /  15.4 °C 29.90in /  1012.4hPa Calm     74% 0.00in /  0mm 0 W/m2
23:29 68.4 °F /  20.2 °C 59.7 °F /  15.4 °C 29.90in /  1012.4hPa Calm     74% 0.00in /  0mm 0 W/m2
23:34 68.2 °F /  20.1 °C 59.5 °F /  15.3 °C 29.90in /  1012.4hPa SE 3mph /  4.8km/h 3mph /  4.8km/h 74% 0.00in /  0mm 0 W/m2
23:39 68 °F /  20 °C 59.4 °F /  15.2 °C 29.90in /  1012.4hPa Calm     74% 0.00in /  0mm 0 W/m2
23:44 67.6 °F /  19.8 °C 59 °F /  15 °C 29.90in /  1012.4hPa Calm   1mph /  1.6km/h 74% 0.00in /  0mm 0 W/m2
23:49 67.5 °F /  19.7 °C 58.8 °F /  14.9 °C 29.90in /  1012.4hPa Calm     74% 0.00in /  0mm 0 W/m2
23:54 67.1 °F /  19.5 °C 58.8 °F /  14.9 °C 29.90in /  1012.4hPa Calm     75% 0.00in /  0mm 0 W/m2
23:59 66.9 °F /  19.4 °C 58.8 °F /  14.9 °C 29.90in /  1012.4hPa Calm   2mph /  3.2km/h 75% 0.00in /  0mm 0 W/m2
Bath Spa Weather
Compliments of Weather Underground - 2 mb